Time;durP1;ratioP1;P1;durP2;ratioP2;P2;SDS_P1;SDS_P2;PMS_P1;PMS_P2;Temp;Humidity;BMP_temperature;BMP_pressure;BME280_temperature;BME280_humidity;BME280_pressure;Samples;Min_cycle;Max_cycle;Signal;HPM_P1;HPM_P2
2022/04/20 00:02:16;;;;;;;3.13;1.70;;;;;;;8.10;57.21;100389.84;5132578;27;20764;-76
2022/04/20 00:04:42;;;;;;;2.00;1.50;;;;;;;8.11;57.77;100389.00;5132916;27;20199;-77
2022/04/20 00:07:10;;;;;;;1.83;1.73;;;;;;;8.11;57.41;100397.63;5133450;27;20206;-76
2022/04/20 00:09:38;;;;;;;2.47;2.27;;;;;;;7.98;58.16;100392.56;5133194;27;20198;-76
2022/04/20 00:12:05;;;;;;;1.70;1.60;;;;;;;7.89;58.06;100393.53;5132945;27;20222;-76
2022/04/20 00:14:31;;;;;;;1.80;1.70;;;;;;;7.88;57.89;100400.44;5132847;27;20607;-76
2022/04/20 00:16:58;;;;;;;1.63;1.50;;;;;;;7.72;58.81;100386.72;5133079;27;20198;-76
2022/04/20 00:19:24;;;;;;;2.23;1.90;;;;;;;7.67;58.27;100379.81;5133002;27;20282;-76
2022/04/20 00:21:51;;;;;;;1.90;1.80;;;;;;;7.67;58.04;100380.72;5133199;27;20221;-76
2022/04/20 00:24:17;;;;;;;1.60;1.50;;;;;;;7.55;58.69;100379.06;5132452;27;20267;-76
2022/04/20 00:26:45;;;;;;;2.17;1.97;;;;;;;7.51;58.52;100363.50;5133018;27;20285;-76
2022/04/20 00:29:11;;;;;;;1.80;1.70;;;;;;;7.42;59.74;100346.25;5133076;27;20207;-76
2022/04/20 00:31:38;;;;;;;1.60;1.50;;;;;;;7.38;60.03;100331.56;5132979;27;20636;-76
2022/04/20 00:34:05;;;;;;;2.00;1.60;;;;;;;7.42;59.90;100325.50;5131637;27;20259;-76
2022/04/20 00:36:32;;;;;;;1.80;1.70;;;;;;;7.44;59.57;100331.53;5133160;27;20450;-77
2022/04/20 00:38:59;;;;;;;1.90;1.60;;;;;;;7.39;60.00;100332.44;5132695;28;20231;-76
2022/04/20 00:41:25;;;;;;;2.33;1.60;;;;;;;7.35;60.40;100336.78;5132884;28;20571;-77
2022/04/20 00:43:54;;;;;;;1.77;1.67;;;;;;;7.40;59.61;100341.97;5132529;28;20639;-76
2022/04/20 00:46:22;;;;;;;1.67;1.57;;;;;;;7.33;60.43;100334.22;5132998;28;20260;-76
2022/04/20 00:48:49;;;;;;;1.87;1.63;;;;;;;7.28;59.86;100337.72;5132893;28;20201;-76
2022/04/20 00:51:15;;;;;;;2.83;1.80;;;;;;;7.20;59.64;100350.75;5132669;28;20222;-76
2022/04/20 00:53:41;;;;;;;3.00;2.10;;;;;;;7.12;59.90;100342.16;5132085;27;20209;-76
2022/04/20 00:56:08;;;;;;;1.73;1.47;;;;;;;7.15;59.93;100347.31;5132838;28;20206;-76
2022/04/20 00:58:36;;;;;;;2.57;1.90;;;;;;;7.10;59.48;100356.88;5132913;27;20771;-76
2022/04/20 01:01:04;;;;;;;1.97;1.77;;;;;;;7.05;59.79;100367.25;5132619;28;20719;-76
2022/04/20 01:03:31;;;;;;;2.20;1.87;;;;;;;7.00;59.59;100363.84;5132510;27;20259;-77
2022/04/20 01:05:57;;;;;;;2.60;2.40;;;;;;;6.97;60.34;100354.31;5132432;28;20672;-77
2022/04/20 01:08:24;;;;;;;2.00;1.80;;;;;;;6.87;59.70;100355.25;5132301;28;20198;-76
2022/04/20 01:10:50;;;;;;;2.97;2.17;;;;;;;6.98;60.18;100350.03;5132759;28;20221;-76
2022/04/20 01:13:17;;;;;;;1.83;1.73;;;;;;;7.06;59.63;100357.75;5132760;28;20203;-76
2022/04/20 01:15:43;;;;;;;2.13;1.80;;;;;;;7.11;59.29;100375.00;5132623;28;20290;-76
2022/04/20 01:18:13;;;;;;;6.27;2.43;;;;;;;7.07;59.51;100370.72;5132391;28;20234;-77
2022/04/20 01:20:40;;;;;;;2.50;1.80;;;;;;;7.05;59.15;100375.03;5132414;28;20225;-76
2022/04/20 01:23:07;;;;;;;2.33;1.93;;;;;;;7.05;59.81;100379.38;5132546;28;20266;-76
2022/04/20 01:25:33;;;;;;;2.07;1.90;;;;;;;7.06;59.19;100378.53;5132616;28;20201;-76
2022/04/20 01:28:01;;;;;;;2.13;1.90;;;;;;;7.05;59.04;100388.03;5132676;28;20217;-76
2022/04/20 01:30:27;;;;;;;2.20;2.00;;;;;;;6.96;59.48;100386.34;5132294;28;20241;-76
2022/04/20 01:32:55;;;;;;;2.63;2.30;;;;;;;6.92;59.73;100368.22;5132203;28;20218;-77
2022/04/20 01:35:22;;;;;;;3.83;1.97;;;;;;;6.91;59.77;100363.88;5133865;27;20205;-75
2022/04/20 01:37:50;;;;;;;3.03;2.20;;;;;;;6.93;59.49;100359.56;5136240;27;20212;-76
2022/04/20 01:40:16;;;;;;;2.00;1.80;;;;;;;6.93;59.49;100367.34;5135975;27;20229;-75
2022/04/20 01:42:43;;;;;;;1.80;1.70;;;;;;;6.84;59.51;100372.56;5135887;27;20687;-76
2022/04/20 01:45:10;;;;;;;2.20;2.00;;;;;;;6.76;60.20;100357.06;5135977;27;20206;-76
2022/04/20 01:47:37;;;;;;;2.00;1.90;;;;;;;6.72;59.97;100357.94;5136145;27;20207;-76
2022/04/20 01:50:04;;;;;;;2.00;1.80;;;;;;;6.71;59.41;100356.19;5135931;27;20225;-76
2022/04/20 01:52:31;;;;;;;2.07;1.87;;;;;;;6.76;59.35;100360.50;5135879;27;20206;-76
2022/04/20 01:55:00;;;;;;;2.47;2.27;;;;;;;6.73;60.27;100363.09;5135626;27;20668;-76
2022/04/20 01:57:26;;;;;;;2.77;2.07;;;;;;;6.65;59.62;100364.00;5135874;27;20610;-76
2022/04/20 01:59:53;;;;;;;2.70;2.50;;;;;;;6.68;60.09;100351.91;5135528;27;20229;-76
2022/04/20 02:02:38;;;;;;;2.10;1.90;;;;;;;6.66;59.58;100364.00;5134747;27;20621;-75
2022/04/20 02:05:06;;;;;;;2.13;2.03;;;;;;;6.65;59.18;100383.03;5130346;27;20545;-76
2022/04/20 02:07:33;;;;;;;2.37;1.90;;;;;;;6.71;59.09;100385.59;5135830;27;20228;-76
2022/04/20 02:10:02;;;;;;;2.40;1.97;;;;;;;6.71;58.90;100382.13;5135207;27;20660;-75
2022/04/20 02:12:29;;;;;;;1.80;1.70;;;;;;;6.67;59.44;100390.81;5135508;27;20259;-76
2022/04/20 02:14:55;;;;;;;3.33;2.00;;;;;;;6.73;58.96;100394.22;5135082;27;20248;-76
2022/04/20 02:17:22;;;;;;;2.00;1.87;;;;;;;6.74;58.55;100405.50;5135551;27;20206;-76
2022/04/20 02:19:49;;;;;;;2.10;1.87;;;;;;;6.70;59.63;100402.03;5135150;27;20274;-77
2022/04/20 02:22:15;;;;;;;2.30;1.83;;;;;;;6.59;60.01;100388.25;5135480;27;20229;-77
2022/04/20 02:24:42;;;;;;;2.30;2.10;;;;;;;6.51;60.31;100377.03;5134952;27;20210;-75
2022/04/20 02:27:10;;;;;;;2.37;2.17;;;;;;;6.53;60.03;100368.38;5135427;27;20232;-76
2022/04/20 02:29:37;;;;;;;1.80;1.70;;;;;;;6.56;60.50;100367.50;5134995;27;20663;-76
2022/04/20 02:32:04;;;;;;;2.10;1.90;;;;;;;6.54;60.10;100369.22;5135162;27;20240;-77
2022/04/20 02:34:31;;;;;;;2.27;2.07;;;;;;;6.41;60.70;100358.03;5126123;27;20250;-76
2022/04/20 02:36:58;;;;;;;2.10;1.67;;;;;;;6.46;60.87;100347.66;5135176;27;20248;-76
2022/04/20 02:39:25;;;;;;;4.10;2.27;;;;;;;6.43;61.72;100339.91;5135067;27;20261;-77
2022/04/20 02:41:52;;;;;;;1.80;1.70;;;;;;;6.43;61.19;100319.16;5134869;27;20221;-76
2022/04/20 02:44:20;;;;;;;2.43;1.80;;;;;;;6.46;62.00;100311.34;5134529;27;20755;-75
2022/04/20 02:46:46;;;;;;;2.00;1.90;;;;;;;6.50;61.89;100319.13;5134845;27;20207;-76
2022/04/20 02:49:13;;;;;;;2.30;2.10;;;;;;;6.47;62.95;100311.34;5134961;27;20258;-76
2022/04/20 02:51:39;;;;;;;2.50;2.30;;;;;;;6.38;62.84;100284.59;5134674;27;20257;-76
2022/04/20 02:54:06;;;;;;;2.83;2.17;;;;;;;6.31;62.57;100281.19;5134428;27;20202;-76
2022/04/20 02:56:32;;;;;;;2.63;2.40;;;;;;;6.28;62.39;100289.84;5134476;27;20262;-75
2022/04/20 02:58:58;;;;;;;2.60;2.40;;;;;;;6.23;62.87;100298.50;5134468;27;20233;-76
2022/04/20 03:01:28;;;;;;;2.23;2.03;;;;;;;6.17;62.85;100294.19;5134657;27;20230;-76
2022/04/20 03:03:54;;;;;;;2.00;1.90;;;;;;;6.15;62.76;100290.75;5125623;27;20298;-77
2022/04/20 03:06:20;;;;;;;2.40;1.93;;;;;;;6.16;63.11;100282.09;5134347;27;20195;-77
2022/04/20 03:08:47;;;;;;;2.37;2.20;;;;;;;6.19;63.02;100282.09;5134978;27;20206;-74
2022/04/20 03:11:14;;;;;;;4.43;2.70;;;;;;;6.16;63.09;100282.97;5134110;27;20230;-76
2022/04/20 03:13:40;;;;;;;2.63;2.43;;;;;;;6.08;63.47;100292.47;5134279;27;20199;-76
2022/04/20 03:16:07;;;;;;;2.30;2.10;;;;;;;6.06;63.80;100277.81;5134499;27;20210;-76
2022/04/20 03:18:35;;;;;;;2.43;2.17;;;;;;;6.11;62.91;100299.41;5134210;27;20290;-76
2022/04/20 03:21:02;;;;;;;2.37;2.17;;;;;;;6.12;63.20;100309.72;5134024;27;20306;-76
2022/04/20 03:23:28;;;;;;;2.47;2.27;;;;;;;6.11;62.83;100315.78;5134059;27;20202;-77
2022/04/20 03:25:55;;;;;;;2.53;2.33;;;;;;;6.13;62.49;100324.44;5133866;27;20210;-76
2022/04/20 03:28:21;;;;;;;2.67;2.30;;;;;;;6.19;62.08;100327.88;5134362;27;20207;-76
2022/04/20 03:30:48;;;;;;;2.17;1.97;;;;;;;6.20;62.75;100325.25;5133899;27;20229;-76
2022/04/20 03:33:15;;;;;;;2.43;2.23;;;;;;;5.99;64.10;100300.28;5133671;27;20214;-77
2022/04/20 03:35:44;;;;;;;2.13;1.93;;;;;;;5.94;64.48;100289.88;5125569;27;20206;-76
2022/04/20 03:38:11;;;;;;;2.83;2.10;;;;;;;5.86;64.50;100281.28;5133975;27;20206;-75
2022/04/20 03:40:37;;;;;;;2.63;1.80;;;;;;;5.73;64.58;100270.09;5134214;27;20276;-75
2022/04/20 03:43:04;;;;;;;2.30;2.10;;;;;;;5.78;64.60;100270.06;5133830;27;20210;-76
2022/04/20 03:45:30;;;;;;;2.13;1.80;;;;;;;5.86;65.15;100262.28;5133497;27;20209;-75
2022/04/20 03:47:57;;;;;;;3.43;2.70;;;;;;;5.78;65.42;100255.38;5133739;27;20254;-76
2022/04/20 03:50:23;;;;;;;2.30;2.10;;;;;;;5.68;64.95;100266.63;5133454;27;20776;-76
2022/04/20 03:52:51;;;;;;;2.10;1.90;;;;;;;5.67;64.89;100270.09;5133470;27;20209;-77
2022/04/20 03:55:17;;;;;;;2.33;2.03;;;;;;;5.74;64.57;100281.31;5133733;27;20205;-76
2022/04/20 03:57:44;;;;;;;2.60;2.40;;;;;;;5.69;65.47;100260.59;5132773;27;20741;-76
2022/04/20 04:00:12;;;;;;;2.53;2.30;;;;;;;5.61;65.55;100257.16;5133390;27;20229;-76
2022/04/20 04:02:38;;;;;;;2.40;2.20;;;;;;;5.56;65.65;100254.56;5133090;27;20709;-76
2022/04/20 04:05:06;;;;;;;2.87;2.67;;;;;;;5.51;65.60;100251.16;5132820;27;20664;-76
2022/04/20 04:07:32;;;;;;;2.40;2.07;;;;;;;5.44;65.88;100248.56;5133053;27;20243;-76
2022/04/20 04:10:00;;;;;;;2.90;2.20;;;;;;;5.41;65.96;100246.84;5132129;27;20243;-76
2022/04/20 04:12:26;;;;;;;2.97;2.73;;;;;;;5.44;65.68;100253.75;5125171;27;20209;-76
2022/04/20 04:14:53;;;;;;;2.40;2.20;;;;;;;5.51;65.99;100255.44;5132769;27;20720;-76
2022/04/20 04:17:19;;;;;;;2.80;2.47;;;;;;;5.55;66.26;100241.66;5133106;27;20255;-74
2022/04/20 04:19:46;;;;;;;3.23;2.30;;;;;;;5.66;65.21;100251.97;5132984;27;20229;-74
2022/04/20 04:22:13;;;;;;;2.40;2.20;;;;;;;5.69;64.60;100273.56;5133368;27;20212;-74
2022/04/20 04:24:40;;;;;;;3.50;2.40;;;;;;;5.70;65.74;100277.84;5132634;27;20210;-74
2022/04/20 04:27:09;;;;;;;2.33;2.13;;;;;;;5.50;65.78;100277.88;5132984;27;20610;-74
2022/04/20 04:29:36;;;;;;;2.03;1.93;;;;;;;5.49;65.73;100262.34;5133100;27;20205;-75
2022/04/20 04:32:03;;;;;;;2.37;2.17;;;;;;;5.50;65.65;100261.50;5132771;27;20252;-74
2022/04/20 04:34:30;;;;;;;2.50;2.30;;;;;;;5.44;66.58;100253.75;5132653;27;20206;-74
2022/04/20 04:36:57;;;;;;;2.40;2.20;;;;;;;5.32;66.79;100239.94;5132515;27;20309;-74
2022/04/20 04:39:24;;;;;;;2.80;2.60;;;;;;;5.32;67.48;100229.59;5133085;28;20209;-74
2022/04/20 04:41:51;;;;;;;2.73;2.53;;;;;;;5.34;66.90;100214.91;5132774;28;20226;-74
2022/04/20 04:44:20;;;;;;;2.83;2.40;;;;;;;5.34;67.43;100209.75;5132545;28;20242;-74
2022/04/20 04:49:32;;;;;;;2.13;2.03;;;;;;;5.37;67.48;100201.97;5132848;28;20244;-74
2022/04/20 04:52:00;;;;;;;2.43;2.00;;;;;;;5.32;68.61;100202.84;5132733;28;20226;-73
2022/04/20 04:54:27;;;;;;;3.93;2.63;;;;;;;5.29;67.82;100203.72;5132439;27;20233;-74
2022/04/20 04:56:53;;;;;;;2.07;1.97;;;;;;;5.38;67.03;100210.59;5132623;27;20732;-74
2022/04/20 04:59:21;;;;;;;2.23;2.03;;;;;;;5.42;66.49;100229.59;5132699;27;20259;-74
2022/04/20 05:01:47;;;;;;;2.47;2.00;;;;;;;5.46;66.97;100242.50;5132405;27;20638;-74
2022/04/20 05:04:14;;;;;;;2.37;2.17;;;;;;;5.33;67.97;100227.84;5132613;27;20210;-74
2022/04/20 05:06:41;;;;;;;2.03;1.83;;;;;;;5.35;67.94;100208.00;5132547;27;20263;-74
2022/04/20 05:09:08;;;;;;;2.40;2.17;;;;;;;5.36;68.00;100215.78;5133881;27;20213;-74
2022/04/20 05:11:34;;;;;;;2.40;1.93;;;;;;;5.36;68.23;100209.75;5129745;27;20222;-74
2022/04/20 05:14:01;;;;;;;3.70;2.10;;;;;;;5.34;69.08;100190.75;5136035;27;20636;-74
2022/04/20 05:16:29;;;;;;;2.60;2.00;;;;;;;5.38;69.58;100192.47;5136352;27;20668;-74
2022/04/20 05:18:55;;;;;;;3.77;1.80;;;;;;;5.27;69.49;100170.94;5136821;27;20207;-74
2022/04/20 05:21:23;;;;;;;2.27;2.07;;;;;;;5.22;70.62;100157.16;5136214;27;20770;-74
2022/04/20 05:23:49;;;;;;;2.80;2.60;;;;;;;5.29;69.51;100164.03;5136614;27;20203;-74
2022/04/20 05:26:15;;;;;;;2.63;2.07;;;;;;;5.43;69.03;100169.16;5136139;27;20217;-74
2022/04/20 05:28:42;;;;;;;2.77;2.10;;;;;;;5.44;68.91;100187.28;5136371;27;20251;-74
2022/04/20 05:31:08;;;;;;;3.20;2.60;;;;;;;5.45;69.37;100189.03;5135984;27;20230;-74
2022/04/20 05:33:36;;;;;;;2.53;2.33;;;;;;;5.62;66.70;100219.19;5136361;27;20246;-74
2022/04/20 05:36:03;;;;;;;2.63;2.43;;;;;;;5.73;66.68;100241.59;5136078;27;20735;-74
2022/04/20 05:41:40;;;;;;;2.20;2.00;;;;;;;5.89;66.38;100260.56;5135851;27;20284;-74
2022/04/20 05:44:07;;;;;;;2.63;2.43;;;;;;;6.04;65.50;100306.31;5131008;27;20198;-74
2022/04/20 05:46:34;;;;;;;3.43;2.40;;;;;;;6.04;66.46;100311.47;5136086;27;20214;-74
2022/04/20 05:49:02;;;;;;;2.67;2.10;;;;;;;6.09;65.10;100307.16;5135793;27;20694;-74
2022/04/20 05:51:28;;;;;;;2.30;2.10;;;;;;;6.21;63.45;100339.09;5142626;27;20265;-74
2022/04/20 05:53:55;;;;;;;2.40;2.10;;;;;;;6.29;63.33;100378.81;5145146;27;20198;-73
2022/04/20 05:56:21;;;;;;;2.10;2.00;;;;;;;6.36;62.97;100396.06;5145278;27;20197;-73
2022/04/20 05:58:52;;;;;;;3.33;2.77;;;;;;;6.44;62.21;100417.69;5146597;27;20655;-74
2022/04/20 06:01:19;;;;;;;2.00;1.90;;;;;;;6.46;62.96;100441.00;5145604;27;20326;-74
2022/04/20 06:03:46;;;;;;;2.50;2.30;;;;;;;6.50;62.52;100422.84;5144151;27;20258;-74
2022/04/20 06:06:14;;;;;;;3.03;2.10;;;;;;;6.57;62.09;100431.47;5138344;27;20194;-74
2022/04/20 06:08:41;;;;;;;2.20;2.00;;;;;;;6.55;61.99;100438.38;5145871;27;20210;-73
2022/04/20 06:11:08;;;;;;;2.37;2.00;;;;;;;6.60;64.00;100386.50;5144304;27;20261;-74
2022/04/20 06:13:35;;;;;;;3.87;2.40;;;;;;;6.66;62.98;100384.75;5147389;27;20201;-73
2022/04/20 06:16:01;;;;;;;2.43;2.23;;;;;;;6.71;62.36;100405.50;5145285;27;20198;-73
2022/04/20 06:18:28;;;;;;;3.67;2.33;;;;;;;6.69;62.24;100418.44;5146504;27;20194;-73
2022/04/20 06:20:54;;;;;;;2.43;2.23;;;;;;;6.78;61.81;100433.16;5143839;27;20765;-74
2022/04/20 06:23:22;;;;;;;2.93;2.60;;;;;;;6.83;61.59;100448.69;5145155;27;20198;-74
2022/04/20 06:25:49;;;;;;;3.77;2.67;;;;;;;6.84;63.23;100442.59;5146115;27;20198;-74
2022/04/20 06:28:16;;;;;;;4.13;2.90;;;;;;;6.87;62.05;100437.41;5144879;27;20243;-73
2022/04/20 06:30:42;;;;;;;4.00;2.97;;;;;;;6.82;62.65;100440.03;5144248;27;20344;-73
2022/04/20 06:33:08;;;;;;;2.73;2.53;;;;;;;6.81;62.61;100417.53;5146190;27;20201;-73
2022/04/20 06:35:35;;;;;;;3.23;2.80;;;;;;;6.89;63.84;100395.03;5153171;27;20206;-73
2022/04/20 06:38:01;;;;;;;3.17;2.77;;;;;;;6.97;62.48;100398.44;5155889;27;20201;-74
2022/04/20 06:40:29;;;;;;;4.07;2.77;;;;;;;7.02;62.46;100401.03;5155020;27;20237;-73
2022/04/20 06:42:56;;;;;;;3.90;2.53;;;;;;;7.12;60.96;100433.84;5128706;27;20257;-74
2022/04/20 06:45:23;;;;;;;3.03;2.83;;;;;;;7.16;61.57;100451.13;5134771;27;20234;-74
2022/04/20 06:47:50;;;;;;;5.33;3.17;;;;;;;7.23;60.49;100464.09;5134590;27;20213;-71
2022/04/20 06:50:16;;;;;;;4.03;3.73;;;;;;;7.31;61.04;100472.69;5133864;27;20225;-71
2022/04/20 06:58:35;;;;;;;4.87;3.03;;;;;;;7.47;61.02;100461.38;5085483;27;20201;-71
2022/04/20 07:01:04;;;;;;;3.63;3.33;;;;;;;7.58;61.02;100463.03;5134601;27;20234;-71
2022/04/20 07:03:30;;;;;;;3.13;2.90;;;;;;;7.63;61.11;100467.34;5134524;27;20205;-71
2022/04/20 07:05:57;;;;;;;3.37;3.07;;;;;;;7.72;61.42;100476.78;5134213;27;20205;-71
2022/04/20 07:08:24;;;;;;;3.57;3.27;;;;;;;7.84;60.50;100484.50;5134748;27;20602;-71
2022/04/20 07:10:50;;;;;;;3.27;3.00;;;;;;;7.94;60.17;100495.69;5134034;27;20708;-72
2022/04/20 07:13:17;;;;;;;4.13;3.23;;;;;;;8.03;60.34;100476.59;5134190;27;20292;-72
2022/04/20 07:15:45;;;;;;;3.33;3.03;;;;;;;8.07;61.26;100460.94;5134455;27;20199;-72
2022/04/20 07:18:12;;;;;;;4.80;3.30;;;;;;;8.18;61.55;100455.63;5134189;27;20237;-72
2022/04/20 07:20:39;;;;;;;4.07;3.67;;;;;;;8.28;60.09;100493.69;5134395;27;20592;-72
2022/04/20 07:23:06;;;;;;;3.57;3.10;;;;;;;8.29;60.13;100492.81;5134822;27;20676;-72
2022/04/20 07:25:33;;;;;;;3.63;3.30;;;;;;;8.33;59.24;100499.72;5134806;27;20247;-72
2022/04/20 07:27:59;;;;;;;3.33;3.10;;;;;;;8.35;60.26;100503.16;5134816;27;20246;-72
2022/04/20 07:30:26;;;;;;;3.90;3.17;;;;;;;8.28;60.34;100511.03;5134148;27;20624;-72
2022/04/20 07:32:54;;;;;;;3.90;3.60;;;;;;;8.19;60.91;100487.72;5132628;27;20680;-72
2022/04/20 07:35:20;;;;;;;5.53;3.60;;;;;;;8.23;60.84;100474.66;5133733;27;20203;-72
2022/04/20 07:37:47;;;;;;;4.87;3.43;;;;;;;8.26;60.94;100466.81;5134029;27;20217;-72
2022/04/20 07:40:14;;;;;;;4.03;3.63;;;;;;;8.35;60.95;100468.50;5133197;27;20606;-72
2022/04/20 07:42:40;;;;;;;4.03;3.70;;;;;;;8.40;60.40;100460.63;5133414;27;20723;-72
2022/04/20 07:45:08;;;;;;;3.70;3.40;;;;;;;8.37;59.82;100478.91;5133623;27;20206;-72
2022/04/20 07:47:34;;;;;;;4.30;3.30;;;;;;;8.30;61.14;100465.91;5133691;27;20252;-72
2022/04/20 07:50:23;;;;;;;4.07;3.50;;;;;;;8.40;61.09;100464.09;5133717;27;20246;-72
2022/04/20 07:52:54;;;;;;;4.60;3.60;;;;;;;8.53;60.92;100478.75;5133705;27;20218;-72
2022/04/20 07:55:22;;;;;;;4.33;3.73;;;;;;;8.62;60.34;100497.75;5133227;27;20203;-72
2022/04/20 07:57:50;;;;;;;4.37;3.97;;;;;;;8.74;61.02;100480.28;5133705;27;20597;-72
2022/04/20 08:00:18;;;;;;;3.70;3.47;;;;;;;8.84;60.33;100491.44;5133449;27;20235;-72
2022/04/20 08:02:46;;;;;;;3.77;3.47;;;;;;;8.89;59.89;100510.47;5133609;27;20201;-72
2022/04/20 08:05:15;;;;;;;3.77;3.30;;;;;;;8.97;60.29;100502.56;5132641;27;20213;-72
2022/04/20 08:07:42;;;;;;;3.90;3.60;;;;;;;9.12;60.60;100483.31;5133410;27;20285;-72
2022/04/20 08:10:10;;;;;;;4.57;3.53;;;;;;;9.33;60.53;100484.78;5133275;27;20227;-72
2022/04/20 08:12:39;;;;;;;4.33;3.93;;;;;;;9.46;59.27;100504.56;5126140;27;20211;-72
2022/04/20 08:15:06;;;;;;;3.90;3.30;;;;;;;9.56;60.13;100515.75;5133188;27;20634;-72
2022/04/20 08:17:33;;;;;;;4.10;3.80;;;;;;;9.68;59.05;100526.00;5132562;27;20207;-72
2022/04/20 08:20:00;;;;;;;3.97;3.40;;;;;;;9.81;58.87;100544.94;5133175;27;20210;-72
2022/04/20 08:22:28;;;;;;;4.00;3.70;;;;;;;9.81;58.55;100563.19;5133232;27;20310;-72
2022/04/20 08:24:55;;;;;;;4.07;3.60;;;;;;;9.89;58.31;100569.16;5133163;27;20199;-72
2022/04/20 08:27:22;;;;;;;4.37;3.40;;;;;;;9.94;57.72;100580.38;5132892;27;20202;-72
2022/04/20 08:29:49;;;;;;;7.73;4.87;;;;;;;9.98;58.31;100586.41;5133406;27;20577;-72
2022/04/20 08:32:16;;;;;;;5.83;3.70;;;;;;;10.07;58.54;100581.06;5132362;27;20214;-72
2022/04/20 08:34:43;;;;;;;3.83;3.30;;;;;;;10.14;58.08;100576.63;5132947;27;20576;-72
2022/04/20 08:37:10;;;;;;;4.60;3.77;;;;;;;10.23;58.18;100580.84;5132821;27;20289;-72
2022/04/20 08:39:39;;;;;;;5.67;3.70;;;;;;;10.23;58.04;100589.53;5132917;27;20206;-72
2022/04/20 08:42:07;;;;;;;6.03;3.70;;;;;;;10.33;57.98;100596.38;5132183;28;20594;-71
2022/04/20 08:44:36;;;;;;;3.90;3.57;;;;;;;10.32;57.87;100606.81;5132366;27;20195;-72
2022/04/20 08:47:04;;;;;;;4.70;3.77;;;;;;;10.33;59.36;100585.94;5132951;27;20305;-72
2022/04/20 08:49:31;;;;;;;7.40;3.93;;;;;;;10.40;58.20;100584.06;5132888;28;20207;-72
2022/04/20 08:54:46;;;;;;;4.17;3.07;;;;;;;10.37;55.48;100643.28;5132534;28;20197;-72
2022/04/20 08:57:16;;;;;;;4.00;3.60;;;;;;;10.28;55.25;100676.41;5132631;28;20691;-72
2022/04/20 08:59:44;;;;;;;4.10;3.70;;;;;;;10.28;55.56;100668.56;5133322;27;20205;-72
2022/04/20 09:02:12;;;;;;;6.30;3.90;;;;;;;10.28;56.59;100655.53;5132404;27;20219;-72
2022/04/20 09:04:39;;;;;;;4.40;4.00;;;;;;;10.31;56.83;100620.75;5132535;28;20213;-73
2022/04/20 09:07:07;;;;;;;3.67;3.43;;;;;;;10.30;56.58;100630.31;5132617;28;20664;-72
2022/04/20 09:09:34;;;;;;;3.07;2.80;;;;;;;10.36;56.15;100644.16;5132696;28;20213;-72
2022/04/20 09:12:03;;;;;;;4.17;3.83;;;;;;;10.39;57.27;100641.53;5132562;27;20279;-73
2022/04/20 09:14:30;;;;;;;5.63;3.53;;;;;;;10.43;57.79;100594.47;5132396;28;20212;-72
2022/04/20 09:16:56;;;;;;;4.10;3.80;;;;;;;10.48;55.68;100636.16;5132752;28;20562;-73
2022/04/20 09:19:25;;;;;;;4.20;3.70;;;;;;;10.54;56.17;100656.94;5132393;28;20733;-73
2022/04/20 09:21:51;;;;;;;3.43;3.13;;;;;;;10.69;55.46;100651.47;5132387;27;20309;-72
2022/04/20 09:24:18;;;;;;;3.57;3.17;;;;;;;10.84;56.27;100663.44;5131887;27;20226;-73
2022/04/20 09:26:52;;;;;;;3.73;3.43;;;;;;;10.99;55.57;100651.84;5132634;27;20254;-73
2022/04/20 09:29:21;;;;;;;4.63;3.37;;;;;;;11.01;56.28;100633.53;5132651;27;20735;-73
2022/04/20 09:31:48;;;;;;;5.17;3.77;;;;;;;11.02;54.34;100671.81;5132448;27;20230;-73
2022/04/20 09:34:36;;;;;;;3.40;2.97;;;;;;;11.02;53.77;100714.50;5132059;27;20236;-72
2022/04/20 09:37:13;;;;;;;3.93;3.57;;;;;;;10.99;54.56;100709.31;5132768;28;20187;-73
2022/04/20 09:39:40;;;;;;;3.60;3.30;;;;;;;11.08;54.79;100700.44;5132142;28;20206;-72
2022/04/20 09:42:09;;;;;;;3.90;3.50;;;;;;;11.12;53.31;100723.06;5132190;27;20227;-72
2022/04/20 09:44:39;;;;;;;4.43;3.93;;;;;;;11.13;55.45;100733.47;5142757;27;20190;-73
2022/04/20 09:49:56;;;;;;;3.57;3.30;;;;;;;11.26;53.88;100713.22;5137616;27;20324;-72
2022/04/20 09:52:23;;;;;;;4.00;3.70;;;;;;;11.29;55.41;100707.94;5142406;27;20235;-73
2022/04/20 09:54:53;;;;;;;5.60;3.30;;;;;;;11.32;54.41;100670.44;5138294;27;20201;-73
2022/04/20 09:57:21;;;;;;;5.57;3.20;;;;;;;11.42;54.86;100686.81;5144300;27;20203;-73
2022/04/20 10:00:00;;;;;;;3.97;3.17;;;;;;;11.50;53.79;100730.22;5146476;27;20206;-72
2022/04/20 10:02:28;;;;;;;3.40;3.10;;;;;;;11.58;52.05;100737.94;5146404;27;20721;-73
2022/04/20 10:04:55;;;;;;;3.73;3.40;;;;;;;11.66;53.39;100745.63;5145077;27;20205;-73
2022/04/20 10:07:22;;;;;;;3.57;3.30;;;;;;;11.73;53.85;100736.75;5144536;27;20204;-73
2022/04/20 10:09:48;;;;;;;4.10;3.13;;;;;;;11.89;53.80;100704.25;5146328;27;20208;-72
2022/04/20 10:12:16;;;;;;;3.40;3.10;;;;;;;12.02;52.19;100749.31;5143521;27;20196;-72
2022/04/20 10:17:37;;;;;;;3.50;3.20;;;;;;;12.13;50.62;100780.53;5144828;27;20350;-74
2022/04/20 10:20:05;;;;;;;3.60;3.30;;;;;;;12.17;51.31;100821.44;5144049;27;20208;-74
2022/04/20 10:22:32;;;;;;;5.90;3.13;;;;;;;12.22;54.12;100729.75;5141034;27;20218;-73
2022/04/20 10:25:00;;;;;;;3.67;3.37;;;;;;;12.32;52.97;100723.41;5133829;27;20204;-74
2022/04/20 10:27:33;;;;;;;3.73;3.30;;;;;;;12.42;50.62;100790.38;5135033;27;20200;-74
2022/04/20 10:30:01;;;;;;;3.20;2.90;;;;;;;12.49;48.79;100843.50;5123435;22;20680;-70
2022/04/20 10:32:38;;;;;;;3.57;3.27;;;;;;;12.55;49.38;100861.69;5062584;28;20286;-70
2022/04/20 10:35:06;;;;;;;3.90;3.53;;;;;;;12.64;49.56;100863.25;5053632;28;20265;-70
2022/04/20 10:37:33;;;;;;;2.97;2.70;;;;;;;12.66;51.58;100817.78;5053530;28;20258;-70
2022/04/20 10:40:15;;;;;;;3.10;2.80;;;;;;;12.72;48.67;100853.47;5053349;28;20813;-70
2022/04/20 10:42:41;;;;;;;3.93;3.53;;;;;;;12.66;49.00;100874.56;5053591;28;20227;-70
2022/04/20 10:45:10;;;;;;;3.30;3.00;;;;;;;12.65;49.50;100865.00;5053689;28;20207;-70
2022/04/20 10:47:40;;;;;;;4.07;3.43;;;;;;;12.79;52.15;100754.69;5053373;28;20218;-70
2022/04/20 10:50:19;;;;;;;3.80;3.50;;;;;;;12.93;50.22;100796.28;5053403;28;20578;-70
2022/04/20 10:52:52;;;;;;;3.77;3.37;;;;;;;13.03;48.92;100816.13;5053663;28;20208;-70
2022/04/20 10:55:24;;;;;;;3.83;2.90;;;;;;;13.15;51.24;100804.50;5070230;28;20195;-70
2022/04/20 10:57:55;;;;;;;3.10;2.90;;;;;;;13.27;49.90;100789.31;5073351;28;20192;-70
2022/04/20 11:00:28;;;;;;;3.77;3.40;;;;;;;13.41;48.38;100807.38;5073207;28;20229;-70
2022/04/20 11:02:55;;;;;;;3.60;3.30;;;;;;;13.44;48.57;100859.75;5072821;28;20295;-70
2022/04/20 11:05:24;;;;;;;3.40;2.90;;;;;;;13.53;47.73;100892.75;5073024;28;20204;-70
2022/04/20 11:08:05;;;;;;;3.77;3.47;;;;;;;13.68;47.54;100879.28;5072938;28;20207;-70
2022/04/20 11:10:32;;;;;;;3.47;3.17;;;;;;;13.81;47.17;100892.09;5073227;28;20231;-70
2022/04/20 11:19:05;;;;;;;3.20;3.00;;;;;;;14.34;45.15;100939.72;5072927;28;20193;-70
2022/04/20 11:21:33;;;;;;;3.53;2.90;;;;;;;14.41;46.31;100941.28;5072382;28;20227;-70
2022/04/20 11:24:03;;;;;;;3.07;2.77;;;;;;;14.67;47.03;100895.09;5072263;28;20543;-70
2022/04/20 11:26:32;;;;;;;2.87;2.67;;;;;;;14.91;44.59;100937.34;5072719;28;20606;-71
2022/04/20 11:29:01;;;;;;;3.33;3.03;;;;;;;15.08;45.02;100993.78;5072606;28;20208;-70
2022/04/20 11:31:36;;;;;;;3.53;3.23;;;;;;;15.66;44.30;100975.38;5072237;28;20235;-70
2022/04/20 11:34:02;;;;;;;5.27;3.80;;;;;;;16.99;40.74;101077.28;5072161;28;20664;-71
2022/04/20 11:36:29;;;;;;;4.03;3.73;;;;;;;18.07;39.62;101208.00;5072623;28;20213;-70
2022/04/20 11:38:57;;;;;;;2.77;2.47;;;;;;;19.78;34.68;101318.44;5072298;28;20702;-70
2022/04/20 11:41:24;;;;;;;3.30;2.97;;;;;;;21.03;32.93;101467.59;5072285;28;20236;-70
2022/04/20 11:43:50;;;;;;;3.40;2.70;;;;;;;22.37;30.11;101583.44;5072005;28;20250;-71
2022/04/20 11:46:19;;;;;;;3.00;2.70;;;;;;;23.13;28.28;101681.69;5072427;28;20203;-71
2022/04/20 11:48:50;;;;;;;2.83;2.73;;;;;;;23.56;27.30;101732.72;5072342;28;20613;-71
2022/04/20 11:51:21;;;;;;;2.80;2.60;;;;;;;24.12;27.81;101757.31;5072358;28;20251;-71
2022/04/20 11:53:48;;;;;;;3.43;2.80;;;;;;;25.13;26.12;101745.38;5072259;28;20216;-71
2022/04/20 11:56:16;;;;;;;3.73;2.83;;;;;;;25.81;24.22;101799.25;5072268;28;20208;-71
2022/04/20 11:58:49;;;;;;;3.17;2.97;;;;;;;25.96;24.81;101825.09;5072663;28;20204;-72
2022/04/20 12:01:19;;;;;;;3.27;3.07;;;;;;;26.25;25.32;101791.16;5072975;28;20229;-71